Flight Track Log - Related Links

Times and Time Zones

All times are in EDT time to prevent confusion due to time zone crossing. See the N147SW flight status page for this flight to view local times or setup timezone preferences in your user account.

Time Position Orientation Groundspeed Altitude Reporting Facility
EDT Latitude Longitude Course Direction KTS MPH feet Rate Location/Type
Wed 09:13:16 AM 27.9500 -82.7000 249° West 222 255 1,100  Level Tampa TRACON
Wed 09:15:53 AM 27.8908 -82.8747 263° West 463 533 10,300 3,235 Climbing Miami Center
Wed 09:16:53 AM 27.8458 -82.9522 237° Southwest 382 440 12,800 2,650 Climbing Miami Center
Wed 09:17:53 AM 27.8131 -83.0372 246° West 349 402 15,600 2,550 Climbing Miami Center
Wed 09:18:53 AM 27.8256 -83.1364 278° West 303 349 17,900 2,050 Climbing Miami Center
Wed 09:19:53 AM 27.8289 -83.2467 272° West 331 381 19,700 2,000 Climbing Miami Center
Wed 09:20:53 AM 27.8342 -83.3644 273° West 357 411 21,900 2,550 Climbing Miami Center
Wed 09:21:53 AM 27.8372 -83.4772 272° West 365 420 24,800 2,450 Climbing Miami Center
Wed 09:22:53 AM 27.8425 -83.5878 273° West 365 420 26,800 1,900 Climbing Miami Center
Wed 09:23:53 AM 27.8433 -83.7028 270° West 370 426 28,600 2,300 Climbing Miami Center
Wed 09:24:53 AM 27.8486 -83.8108 273° West 365 420 31,400 2,450 Climbing Miami Center
Wed 09:25:53 AM 27.8517 -83.9192 272° West 359 413 33,500 2,000 Climbing Miami Center
Wed 09:27:32 AM 27.8606 -84.0944 273° West 340 391 36,700 1,660 Climbing Jacksonville Center
Wed 09:28:32 AM 27.8575 -84.1906 268° West 322 371 37,900 1,150 Climbing Jacksonville Center
Wed 09:29:32 AM 27.8669 -84.2869 276° West 317 365 39,000 1,050 Climbing Jacksonville Center
Wed 09:30:32 AM 27.8681 -84.3831 271° West 312 359 40,000 500 Climbing Jacksonville Center
Wed 09:31:32 AM 27.8711 -84.4794 272° West 307 353 40,000  Level Jacksonville Center
Wed 09:32:32 AM 27.8717 -84.5828 270° West 317 365 40,000  Level Jacksonville Center
Wed 09:33:32 AM 27.8703 -84.6931 269° West 330 380 40,000  Level Jacksonville Center
Wed 09:34:32 AM 27.8750 -84.8011 273° West 350 403 40,000  Level Jacksonville Center
Wed 09:35:32 AM 27.8775 -84.9139 271° West 350 403 40,000  Level Jacksonville Center
Wed 09:36:32 AM 27.8797 -85.0289 271° West 362 417 40,000  Level Jacksonville Center
Wed 09:37:32 AM 27.8819 -85.1511 271° West 373 429 40,000  Level Jacksonville Center
Wed 09:38:32 AM 27.8861 -85.2639 272° West 373 429 40,000  Level Jacksonville Center
Wed 09:39:32 AM 27.9217 -85.3750 290° West 368 423 40,000  Level Jacksonville Center
Wed 09:40:32 AM 27.9544 -85.4981 287° West 389 448 40,000  Level Jacksonville Center
Wed 09:41:32 AM 27.9897 -85.6094 290° West 395 455 40,000  Level Jacksonville Center
Wed 09:42:32 AM 28.0247 -85.7303 288° West 395 455 40,000  Level Jacksonville Center
Wed 09:43:32 AM 28.0619 -85.8442 290° West 388 447 40,000  Level Jacksonville Center
Wed 09:44:32 AM 28.0967 -85.9650 288° West 388 447 40,000  Level Jacksonville Center
Wed 09:45:32 AM 28.1333 -86.0839 289° West 395 455 40,000  Level Jacksonville Center
Wed 09:46:32 AM 28.1678 -86.2075 288° West 402 463 40,000  Level Jacksonville Center
Wed 09:47:32 AM 28.2022 -86.3214 289° West 402 463 40,000  Level Jacksonville Center
Wed 09:48:32 AM 28.2386 -86.4453 288° West 402 463 40,000  Level Jacksonville Center
Wed 09:49:32 AM 28.2708 -86.5594 288° West 402 463 40,000  Level Jacksonville Center
Wed 09:50:32 AM 28.3069 -86.6786 289° West 407 468 40,000  Level Jacksonville Center
Wed 09:51:32 AM 28.3392 -86.7858 289° West 400 460 40,000  Level Jacksonville Center
Wed 09:52:32 AM 28.3733 -86.9028 288° West 400 460 40,000  Level Jacksonville Center
Wed 09:53:32 AM 28.4069 -87.0222 288° West 405 466 40,000  Level Jacksonville Center
Wed 09:54:40 AM 28.4464 -87.1519 289° West 397 457 40,000  Level Houston Center
Wed 09:55:42 AM 28.4808 -87.2714 288° West 397 457 40,000  Level Houston Center
Wed 09:56:44 AM 28.5153 -87.3914 288° West 397 457 40,000  Level Houston Center
Wed 09:57:45 AM 28.5503 -87.5125 288° West 398 458 40,000  Level Houston Center
Wed 09:58:47 AM 28.5900 -87.6561 288° West 398 458 40,000  Level Houston Center
Wed 09:59:49 AM 28.6247 -87.7769 288° West 399 459 40,000  Level Houston Center
Wed 10:00:51 AM 28.6597 -87.8961 289° West 399 459 40,000  Level Houston Center
Wed 10:01:53 AM 28.6928 -88.0167 287° West 399 459 40,000  Level Houston Center
Wed 10:02:55 AM 28.7286 -88.1458 288° West 399 459 40,000  Level Houston Center
Wed 10:03:57 AM 28.7925 -88.2539 304° West 415 478 40,000  Level Houston Center
Wed 10:04:59 AM 28.8597 -88.3631 305° West 416 479 40,000  Level Houston Center
Wed 10:06:02 AM 28.9250 -88.4714 305° West 416 479 40,000  Level Houston Center
Wed 10:07:04 AM 29.0036 -88.6011 305° West 416 479 40,000  Level Houston Center
Wed 10:08:06 AM 29.0689 -88.7106 304° West 416 479 40,000  Level Houston Center
Wed 10:09:08 AM 29.1350 -88.8186 305° West 416 479 40,000  Level Houston Center
Wed 10:10:10 AM 29.2006 -88.9283 304° West 416 479 40,000  Level Houston Center
Wed 10:11:12 AM 29.2658 -89.0361 305° West 416 479 40,000  Level Houston Center
Wed 10:12:14 AM 29.3319 -89.1475 304° West 416 479 40,000  Level Houston Center
Wed 10:13:16 AM 29.4111 -89.2797 305° West 417 480 40,000  Level Houston Center
Wed 10:14:18 AM 29.4761 -89.3903 304° West 418 481 40,000  Level Houston Center
Wed 10:15:20 AM 29.5422 -89.5008 305° West 418 481 40,000  Level Houston Center
Wed 10:16:23 AM 29.6100 -89.6144 304° West 425 489 40,000  Level Houston Center
Wed 10:17:25 AM 29.6753 -89.7261 304° West 425 489 40,000  Level Houston Center
Wed 10:18:27 AM 29.7414 -89.8394 304° West 425 489 40,000  Level Houston Center
Wed 10:19:29 AM 29.8217 -89.9744 304° West 425 489 40,000  Level Houston Center
Wed 10:20:31 AM 29.8881 -90.0881 304° West 425 489 40,000  Level Houston Center
Wed 10:21:33 AM 29.9544 -90.2022 304° West 425 489 40,000  Level Houston Center
Wed 10:22:36 AM 30.0211 -90.3167 304° West 427 491 40,000  Level Houston Center
Wed 10:23:38 AM 30.0864 -90.4311 303° West 427 491 40,000  Level Houston Center
Wed 10:24:40 AM 30.1622 -90.5600 304° West 427 491 40,000  Level Houston Center
Wed 10:25:42 AM 30.2281 -90.6742 304° West 427 491 40,000  Level Houston Center
Wed 10:26:44 AM 30.2897 -90.7903 302° West 427 491 40,000  Level Houston Center
Wed 10:27:46 AM 30.3408 -90.9133 296° West 424 488 40,000  Level Houston Center
Wed 10:28:49 AM 30.3942 -91.0347 297° West 424 488 40,000  Level Houston Center
Wed 10:29:51 AM 30.4575 -91.1808 297° West 424 488 40,000  Level Houston Center
Wed 10:30:53 AM 30.5114 -91.3019 297° West 424 488 40,000  Level Houston Center
Wed 10:31:55 AM 30.5622 -91.4247 296° West 424 488 40,000  Level Houston Center
Wed 10:32:57 AM 30.6169 -91.5469 298° West 425 489 40,000  Level Houston Center
Wed 10:33:59 AM 30.6686 -91.6692 296° West 422 486 40,000  Level Houston Center
Wed 10:35:01 AM 30.7219 -91.7908 297° West 423 487 40,000  Level Houston Center
Wed 10:36:04 AM 30.7850 -91.9372 297° West 423 487 40,000  Level Houston Center
Wed 10:37:06 AM 30.8378 -92.0597 297° West 423 487 40,000  Level Houston Center
Wed 10:38:08 AM 30.8897 -92.1822 296° West 423 487 40,000  Level Houston Center
Wed 10:39:10 AM 30.9431 -92.3067 297° West 423 487 40,000  Level Houston Center
Wed 10:40:12 AM 30.9961 -92.4314 296° West 423 487 40,000  Level Houston Center
Wed 10:41:14 AM 31.0575 -92.5781 296° West 424 488 40,000  Level Houston Center
Wed 10:42:16 AM 31.1106 -92.7019 297° West 425 489 40,000  Level Houston Center
Wed 10:43:19 AM 31.1631 -92.8264 296° West 426 490 40,000  Level Houston Center
Wed 10:44:21 AM 31.2147 -92.9506 296° West 426 490 40,000  Level Houston Center
Wed 10:45:23 AM 31.2653 -93.0739 296° West 426 490 40,000  Level Houston Center
Wed 10:46:25 AM 31.3278 -93.2222 296° West 425 489 40,000  Level Houston Center
Wed 10:47:27 AM 31.3742 -93.3333 296° West 425 489 40,000  Level Houston Center
Wed 10:48:29 AM 31.4253 -93.4583 296° West 425 489 40,000  Level Houston Center
Wed 10:49:31 AM 31.4867 -93.6086 296° West 427 491 40,000  Level Houston Center
Wed 10:50:34 AM 31.5383 -93.7328 296° West 426 490 40,000  Level Houston Center
Wed 10:51:36 AM 31.5883 -93.8578 295° West 426 490 40,000  Level Houston Center
Wed 10:52:19 AM 31.6303 -93.9608 296° West 427 491 40,000  Level Fort Worth Center
Wed 10:53:21 AM 31.6806 -94.0858 295° West 426 490 40,000  Level Fort Worth Center
Wed 10:54:23 AM 31.7317 -94.2100 296° West 426 490 40,000  Level Fort Worth Center
Wed 10:55:25 AM 31.7814 -94.3356 295° West 425 489 40,000 -629 Level Fort Worth Center
Wed 10:56:27 AM 31.8303 -94.4544 296° West 429 494 38,700 -1,935 Descending Fort Worth Center
Wed 10:57:29 AM 31.8950 -94.6169 295° West 455 524 36,000 -2,371 Descending Fort Worth Center
Wed 10:58:31 AM 31.9489 -94.7550 295° West 463 533 33,800 -2,129 Descending Fort Worth Center
Wed 10:59:33 AM 32.0017 -94.8900 295° West 456 525 31,600 -2,129 Descending Fort Worth Center
Wed 11:00:35 AM 32.0539 -95.0225 295° West 458 527 29,400 -2,352 Descending Fort Worth Center
Wed 11:01:38 AM 32.1200 -95.1886 295° West 465 535 26,700 -2,352 Descending Fort Worth Center
Wed 11:02:40 AM 32.1739 -95.3267 295° West 465 535 24,500 -2,129 Descending Fort Worth Center
Wed 11:03:42 AM 32.2275 -95.4631 295° West 463 533 22,300 -2,081 Descending Fort Worth Center
Wed 11:04:44 AM 32.2792 -95.5942 295° West 445 512 20,200 -2,081 Descending Fort Worth Center
Wed 11:05:46 AM 32.3278 -95.7217 294° West 431 496 18,000 -1,935 Descending Fort Worth Center
Wed 11:06:48 AM 32.3767 -95.8447 295° West 420 483 16,200 -1,935 Descending Fort Worth Center
Wed 11:07:50 AM 32.4314 -95.9883 294° West 400 460 14,000 -1,935 Descending Fort Worth Center
Wed 11:08:52 AM 32.4772 -96.1044 295° West 390 449 12,200 -1,839 Descending Fort Worth Center
Wed 11:09:54 AM 32.5236 -96.2281 294° West 384 442 10,200 -1,548 Descending Fort Worth Center
Wed 11:10:56 AM 32.5664 -96.3417 294° West 382 440 9,000 -720 Descending Fort Worth Center
Wed 11:11:59 AM 32.6181 -96.4275 306° West 291 335 8,700 -864 Descending Fort Worth Center
Wed 11:13:01 AM 32.6611 -96.5022 304° West 280 322 7,200 -1,258 Descending Fort Worth Center
Wed 11:14:03 AM 32.7219 -96.5628 320° Northwest 289 333 6,100 -1,065 Descending Fort Worth Center
Wed 11:15:05 AM 32.7889 -96.6300 320° Northwest 291 335 5,000 -532 Descending Fort Worth Center
Wed 11:16:07 AM 32.8500 -96.6992 316° Northwest 299 344 5,000 -435 Level Fort Worth Center
Wed 11:17:09 AM 32.9067 -96.7603 318° Northwest 275 316 4,100 -968 Descending Fort Worth Center
Wed 11:18:11 AM 32.9639 -96.8231 317° Northwest 260 299 3,000 -871 Descending Fort Worth Center
Wed 11:19:13 AM 32.9256 -96.8764 229° Southwest 221 254 2,300 -629 Descending Fort Worth Center
Wed 11:20:15 AM 32.8761 -96.8803 184° South 179 206 1,700 -823 Descending Fort Worth Center
Wed 11:21:17 AM 32.8525 -96.8503 133° Southeast 152 175 600 -1,065 Descending Fort Worth Center
Wed 11:23:00 AM 32.8471 -96.8518 180° South  Level Estimated
Wed 11:30:00 AM 32.8471 -96.8518 180° South  Level Estimated

Login

Don't have an account? Register now (free) for customized features, flight alerts, and more!